createdAt,value
2018-09-25T00:00:49.589Z,1048.25
2018-09-25T00:01:49.573Z,1048.25
2018-09-25T00:02:49.561Z,1048.25
2018-09-25T00:03:49.550Z,1048.27
2018-09-25T00:04:49.539Z,1048.29
2018-09-25T00:05:49.526Z,1048.31
2018-09-25T00:06:49.515Z,1048.35
2018-09-25T00:07:49.503Z,1048.35
2018-09-25T00:08:49.492Z,1048.32
2018-09-25T00:09:49.484Z,1048.3
2018-09-25T00:10:49.468Z,1048.36
2018-09-25T00:11:49.456Z,1048.4
2018-09-25T00:12:49.445Z,1048.4
2018-09-25T00:13:49.433Z,1048.41
2018-09-25T00:14:49.422Z,1048.46
2018-09-25T00:15:49.411Z,1048.53
2018-09-25T00:16:49.398Z,1048.51
2018-09-25T00:17:49.386Z,1048.51
2018-09-25T00:18:49.374Z,1048.56
2018-09-25T00:19:49.364Z,1048.56
2018-09-25T00:20:49.351Z,1048.61
2018-09-25T00:21:49.339Z,1048.62
2018-09-25T00:22:49.327Z,1048.59
2018-09-25T00:23:49.315Z,1048.58
2018-09-25T00:24:49.304Z,1048.62
2018-09-25T00:25:49.292Z,1048.65
2018-09-25T00:26:49.281Z,1048.65
2018-09-25T00:27:49.267Z,1048.69
2018-09-25T00:28:49.256Z,1048.68
2018-09-25T00:29:49.245Z,1048.69
2018-09-25T00:30:49.233Z,1048.67
2018-09-25T00:31:49.221Z,1048.68
2018-09-25T00:32:49.210Z,1048.67
2018-09-25T00:33:49.197Z,1048.7
2018-09-25T00:34:49.185Z,1048.69
2018-09-25T00:35:49.175Z,1048.71
2018-09-25T00:36:49.161Z,1048.73
2018-09-25T00:37:49.150Z,1048.7
2018-09-25T00:38:49.138Z,1048.71
2018-09-25T00:39:49.126Z,1048.71
2018-09-25T00:40:49.114Z,1048.7
2018-09-25T00:41:49.102Z,1048.66
2018-09-25T00:42:49.090Z,1048.69
2018-09-25T00:43:49.078Z,1048.71
2018-09-25T00:44:49.066Z,1048.73
2018-09-25T00:45:49.053Z,1048.72
2018-09-25T00:46:49.042Z,1048.74
2018-09-25T00:47:49.030Z,1048.79
2018-09-25T00:48:49.018Z,1048.84
2018-09-25T00:49:49.007Z,1048.81
2018-09-25T00:50:49.244Z,1048.81
2018-09-25T00:51:48.988Z,1048.78
2018-09-25T00:52:48.971Z,1048.78
2018-09-25T00:53:48.958Z,1048.81
2018-09-25T00:54:48.946Z,1048.8
2018-09-25T00:55:48.934Z,1048.87
2018-09-25T00:56:48.921Z,1048.91
2018-09-25T00:57:48.910Z,1048.93
2018-09-25T00:58:48.899Z,1048.94
2018-09-25T00:59:48.887Z,1048.97
2018-09-25T01:00:48.874Z,1048.96
2018-09-25T01:01:48.862Z,1048.97
2018-09-25T01:02:48.850Z,1048.99
2018-09-25T01:03:48.838Z,1048.98
2018-09-25T01:04:48.825Z,1048.98
2018-09-25T01:05:48.814Z,1048.95
2018-09-25T01:06:48.802Z,1048.97
2018-09-25T01:07:48.790Z,1049
2018-09-25T01:08:48.779Z,1049
2018-09-25T01:09:48.766Z,1048.96
2018-09-25T01:10:48.754Z,1048.93
2018-09-25T01:11:48.744Z,1049.01
2018-09-25T01:12:48.729Z,1049
2018-09-25T01:13:48.717Z,1049.01
2018-09-25T01:14:48.706Z,1049.05
2018-09-25T01:15:48.694Z,1049.04
2018-09-25T01:16:48.680Z,1049.08
2018-09-25T01:17:48.669Z,1049.1
2018-09-25T01:18:48.656Z,1049.1
2018-09-25T01:19:48.644Z,1049.17
2018-09-25T01:20:48.632Z,1049.18
2018-09-25T01:21:48.621Z,1049.16
2018-09-25T01:22:48.607Z,1049.2
2018-09-25T01:23:48.595Z,1049.17
2018-09-25T01:24:48.588Z,1049.16
2018-09-25T01:25:48.572Z,1049.16
2018-09-25T01:26:48.560Z,1049.16
2018-09-25T01:27:48.548Z,1049.2
2018-09-25T01:28:48.536Z,1049.23
2018-09-25T01:29:48.523Z,1049.23
2018-09-25T01:30:48.511Z,1049.22
2018-09-25T01:31:48.499Z,1049.23
2018-09-25T01:32:48.488Z,1049.21
2018-09-25T01:33:48.474Z,1049.24
2018-09-25T01:34:48.463Z,1049.24
2018-09-25T01:35:48.450Z,1049.26
2018-09-25T01:36:48.437Z,1049.25
2018-09-25T01:37:48.425Z,1049.28
2018-09-25T01:38:48.413Z,1049.33
2018-09-25T01:39:48.401Z,1049.33
2018-09-25T01:40:48.388Z,1049.34
2018-09-25T01:41:48.376Z,1049.33
2018-09-25T01:42:48.369Z,1049.35
2018-09-25T01:43:48.353Z,1049.36
2018-09-25T01:44:48.339Z,1049.36
2018-09-25T01:45:48.328Z,1049.37
2018-09-25T01:46:48.315Z,1049.41
2018-09-25T01:47:48.303Z,1049.4
2018-09-25T01:48:48.291Z,1049.39
2018-09-25T01:49:48.278Z,1049.4
2018-09-25T01:50:48.267Z,1049.41
2018-09-25T01:51:48.253Z,1049.41
2018-09-25T01:52:48.242Z,1049.42
2018-09-25T01:53:48.232Z,1049.38
2018-09-25T01:54:48.218Z,1049.39
2018-09-25T01:55:48.205Z,1049.44
2018-09-25T01:56:48.193Z,1049.44
2018-09-25T01:57:48.180Z,1049.41
2018-09-25T01:58:48.167Z,1049.43
2018-09-25T01:59:48.156Z,1049.42
2018-09-25T02:00:48.144Z,1049.43
2018-09-25T02:01:48.132Z,1049.45
2018-09-25T02:02:48.119Z,1049.47
2018-09-25T02:03:48.108Z,1049.44
2018-09-25T02:04:48.094Z,1049.45
2018-09-25T02:05:48.135Z,1049.47
2018-09-25T02:06:48.069Z,1049.5
2018-09-25T02:07:48.057Z,1049.48
2018-09-25T02:08:48.045Z,1049.56
2018-09-25T02:09:48.032Z,1049.57
2018-09-25T02:10:48.021Z,1049.56
2018-09-25T02:11:48.009Z,1049.57
2018-09-25T02:12:47.995Z,1049.56
2018-09-25T02:13:47.982Z,1049.54
2018-09-25T02:14:47.970Z,1049.57
2018-09-25T02:15:47.958Z,1049.59
2018-09-25T02:16:47.946Z,1049.59
2018-09-25T02:17:47.933Z,1049.6
2018-09-25T02:18:47.921Z,1049.64
2018-09-25T02:19:47.909Z,1049.63
2018-09-25T02:20:47.896Z,1049.67
2018-09-25T02:21:47.883Z,1049.66
2018-09-25T02:22:47.871Z,1049.69
2018-09-25T02:23:47.860Z,1049.7
2018-09-25T02:24:47.846Z,1049.71
2018-09-25T02:25:47.834Z,1049.69
2018-09-25T02:26:47.822Z,1049.71
2018-09-25T02:27:47.809Z,1049.76
2018-09-25T02:28:47.796Z,1049.75
2018-09-25T02:29:47.785Z,1049.76
2018-09-25T02:30:47.773Z,1049.77
2018-09-25T02:31:47.759Z,1049.75
2018-09-25T02:32:47.747Z,1049.78
2018-09-25T02:33:47.735Z,1049.72
2018-09-25T02:34:47.723Z,1049.71
2018-09-25T02:35:47.712Z,1049.68
2018-09-25T02:36:47.698Z,1049.72
2018-09-25T02:37:47.686Z,1049.72
2018-09-25T02:38:47.677Z,1049.74
2018-09-25T02:39:47.661Z,1049.76
2018-09-25T02:40:47.648Z,1049.75
2018-09-25T02:41:47.635Z,1049.72
2018-09-25T02:42:47.644Z,1049.73
2018-09-25T02:43:47.609Z,1049.73
2018-09-25T02:44:47.597Z,1049.78
2018-09-25T02:45:47.585Z,1049.8
2018-09-25T02:46:47.572Z,1049.82
2018-09-25T02:47:47.560Z,1049.85
2018-09-25T02:48:47.547Z,1049.81
2018-09-25T02:49:47.535Z,1049.87
2018-09-25T02:50:47.522Z,1049.87
2018-09-25T02:51:47.510Z,1049.9
2018-09-25T02:52:47.497Z,1049.93
2018-09-25T02:53:47.484Z,1049.96
2018-09-25T02:54:47.472Z,1049.96
2018-09-25T02:55:47.464Z,1049.95
2018-09-25T02:56:47.448Z,1049.99
2018-09-25T02:57:47.443Z,1049.97
2018-09-25T02:58:47.423Z,1050.01
2018-09-25T02:59:47.410Z,1050.08
2018-09-25T03:00:47.402Z,1050.07
2018-09-25T03:01:47.389Z,1050.08
2018-09-25T03:02:47.377Z,1050.08
2018-09-25T03:03:47.363Z,1050.1
2018-09-25T03:04:47.348Z,1050.11
2018-09-25T03:05:47.342Z,1050.08
2018-09-25T03:06:47.323Z,1050.12
2018-09-25T03:07:47.311Z,1050.11
2018-09-25T03:08:47.297Z,1050.15
2018-09-25T03:09:47.286Z,1050.11
2018-09-25T03:10:47.273Z,1050.12
2018-09-25T03:11:47.260Z,1050.09
2018-09-25T03:12:47.249Z,1050.09
2018-09-25T03:13:47.235Z,1050.13
2018-09-25T03:14:47.223Z,1050.16
2018-09-25T03:15:47.212Z,1050.12
2018-09-25T03:16:47.199Z,1050.12
2018-09-25T03:17:47.185Z,1050.15
2018-09-25T03:18:47.180Z,1050.17
2018-09-25T03:19:47.161Z,1050.19
2018-09-25T03:20:47.147Z,1050.22
2018-09-25T03:21:47.135Z,1050.22
2018-09-25T03:22:47.121Z,1050.21
2018-09-25T03:23:47.144Z,1050.25
2018-09-25T03:24:47.101Z,1050.19
2018-09-25T03:25:47.085Z,1050.27
2018-09-25T03:26:47.071Z,1050.26
2018-09-25T03:27:47.070Z,1050.23
2018-09-25T03:28:47.047Z,1050.26
2018-09-25T03:29:47.034Z,1050.26
2018-09-25T03:30:47.032Z,1050.22
2018-09-25T03:31:47.009Z,1050.25
2018-09-25T03:32:46.998Z,1050.26
2018-09-25T03:33:46.990Z,1050.25
2018-09-25T03:34:46.970Z,1050.27
2018-09-25T03:35:46.964Z,1050.24
2018-09-25T03:36:46.946Z,1050.26
2018-09-25T03:37:46.938Z,1050.26
2018-09-25T03:38:46.920Z,1050.25
2018-09-25T03:39:46.909Z,1050.27
2018-09-25T03:40:46.896Z,1050.28
2018-09-25T03:41:46.883Z,1050.31
2018-09-25T03:42:46.870Z,1050.28
2018-09-25T03:43:46.859Z,1050.3
2018-09-25T03:44:46.844Z,1050.31
2018-09-25T03:45:46.831Z,1050.34
2018-09-25T03:46:46.821Z,1050.39
2018-09-25T03:47:46.807Z,1050.42
2018-09-25T03:48:46.794Z,1050.41
2018-09-25T03:49:46.781Z,1050.45
2018-09-25T03:50:46.772Z,1050.43
2018-09-25T03:51:46.756Z,1050.49
2018-09-25T03:52:46.747Z,1050.48
2018-09-25T03:53:46.731Z,1050.53
2018-09-25T03:54:46.717Z,1050.46
2018-09-25T03:55:46.704Z,1050.55
2018-09-25T03:56:46.693Z,1050.58
2018-09-25T03:57:46.681Z,1050.56
2018-09-25T03:58:46.669Z,1050.58
2018-09-25T03:59:46.662Z,1050.59
2018-09-25T04:00:46.643Z,1050.61
2018-09-25T04:01:46.629Z,1050.64
2018-09-25T04:02:46.618Z,1050.64
2018-09-25T04:03:46.605Z,1050.64
2018-09-25T04:04:46.591Z,1050.65
2018-09-25T04:05:46.579Z,1050.7
2018-09-25T04:06:46.565Z,1050.7
2018-09-25T04:07:46.554Z,1050.68
2018-09-25T04:08:46.540Z,1050.66
2018-09-25T04:09:46.527Z,1050.65
2018-09-25T04:10:46.514Z,1050.68
2018-09-25T04:11:46.509Z,1050.74
2018-09-25T04:12:46.489Z,1050.69
2018-09-25T04:13:46.476Z,1050.74
2018-09-25T04:14:46.463Z,1050.71
2018-09-25T04:15:46.451Z,1050.74
2018-09-25T04:16:46.438Z,1050.8
2018-09-25T04:17:46.424Z,1050.79
2018-09-25T04:18:46.413Z,1050.81
2018-09-25T04:19:46.401Z,1050.85
2018-09-25T04:20:46.388Z,1050.86
2018-09-25T04:21:46.376Z,1050.87
2018-09-25T04:22:46.362Z,1050.89
2018-09-25T04:23:46.349Z,1050.92
2018-09-25T04:24:46.336Z,1050.91
2018-09-25T04:25:46.323Z,1050.95
2018-09-25T04:26:46.311Z,1051.01
2018-09-25T04:27:46.299Z,1051.04
2018-09-25T04:28:46.287Z,1051
2018-09-25T04:29:46.272Z,1051.09
2018-09-25T04:30:46.260Z,1051.09
2018-09-25T04:31:46.248Z,1051.09
2018-09-25T04:32:46.234Z,1051.1
2018-09-25T04:33:46.222Z,1051.12
2018-09-25T04:34:46.208Z,1051.14
2018-09-25T04:35:46.200Z,1051.17
2018-09-25T04:36:46.184Z,1051.21
2018-09-25T04:37:46.171Z,1051.26
2018-09-25T04:38:46.159Z,1051.26
2018-09-25T04:39:46.146Z,1051.26
2018-09-25T04:40:46.133Z,1051.28
2018-09-25T04:41:46.122Z,1051.24
2018-09-25T04:42:46.108Z,1051.26
2018-09-25T04:43:46.095Z,1051.27
2018-09-25T04:44:46.083Z,1051.28
2018-09-25T04:45:46.070Z,1051.3
2018-09-25T04:46:46.056Z,1051.32
2018-09-25T04:47:46.104Z,1051.3
2018-09-25T04:48:46.032Z,1051.29
2018-09-25T04:49:46.019Z,1051.27
2018-09-25T04:50:46.005Z,1051.26
2018-09-25T04:51:45.993Z,1051.28
2018-09-25T04:52:45.981Z,1051.29
2018-09-25T04:53:45.976Z,1051.31
2018-09-25T04:54:45.954Z,1051.32
2018-09-25T04:55:45.941Z,1051.27
2018-09-25T04:56:45.930Z,1051.35
2018-09-25T04:57:45.916Z,1051.32
2018-09-25T04:58:45.903Z,1051.31
2018-09-25T04:59:46.141Z,1051.34
2018-09-25T05:00:45.878Z,1051.33
2018-09-25T05:01:45.865Z,1051.32
2018-09-25T05:02:45.853Z,1051.31
2018-09-25T05:03:45.844Z,1051.26
2018-09-25T05:04:45.832Z,1051.27
2018-09-25T05:05:45.815Z,1051.31
2018-09-25T05:06:45.934Z,1051.29
2018-09-25T05:07:45.791Z,1051.26
2018-09-25T05:08:45.776Z,1051.26
2018-09-25T05:09:45.764Z,1051.22
2018-09-25T05:10:45.752Z,1051.22
2018-09-25T05:11:45.739Z,1051.2
2018-09-25T05:12:45.728Z,1051.2
2018-09-25T05:13:45.713Z,1051.23
2018-09-25T05:14:45.746Z,1051.19
2018-09-25T05:15:45.688Z,1051.15
2018-09-25T05:16:45.675Z,1051.17
2018-09-25T05:17:45.664Z,1051.17
2018-09-25T05:18:45.653Z,1051.13
2018-09-25T05:19:45.637Z,1051.09
2018-09-25T05:20:45.626Z,1051.05
2018-09-25T05:21:45.613Z,1050.94
2018-09-25T05:22:45.601Z,1050.82
2018-09-25T05:23:45.588Z,1050.7
2018-09-25T05:24:45.589Z,1050.55
2018-09-25T05:25:45.564Z,1050.46
2018-09-25T05:26:45.552Z,1050.4
2018-09-25T05:27:45.539Z,1050.28
2018-09-25T05:28:45.528Z,1050.2
2018-09-25T05:29:45.516Z,1050.08
2018-09-25T05:30:45.753Z,1049.97
2018-09-25T05:31:45.499Z,1049.85
2018-09-25T05:32:45.481Z,1049.79
2018-09-25T05:33:45.472Z,1049.67
2018-09-25T05:34:45.456Z,1049.57
2018-09-25T05:35:45.449Z,1049.45
2018-09-25T05:36:45.435Z,1049.36
2018-09-25T05:37:45.423Z,1049.17
2018-09-25T05:38:45.415Z,1049.11
2018-09-25T05:39:45.400Z,1049.04
2018-09-25T05:40:45.397Z,1048.93
2018-09-25T05:41:45.381Z,1048.85
2018-09-25T05:42:45.369Z,1048.68
2018-09-25T05:43:45.360Z,1048.58
2018-09-25T05:44:45.355Z,1048.5
2018-09-25T05:45:45.339Z,1048.38
2018-09-25T05:46:45.330Z,1048.31
2018-09-25T05:47:45.324Z,1048.22
2018-09-25T05:48:45.464Z,1048.06
2018-09-25T05:49:45.340Z,1047.91
2018-09-25T05:50:45.293Z,1047.83
2018-09-25T05:51:45.284Z,1047.71
2018-09-25T05:52:45.276Z,1047.63
2018-09-25T05:53:45.276Z,1047.59
2018-09-25T05:54:45.264Z,1047.43
2018-09-25T05:55:45.250Z,1047.41
2018-09-25T05:56:45.243Z,1047.27
2018-09-25T05:57:45.234Z,1047.21
2018-09-25T05:58:45.226Z,1047.16
2018-09-25T05:59:45.218Z,1047.05
2018-09-25T06:00:45.211Z,1046.96
2018-09-25T06:01:45.202Z,1046.89
2018-09-25T06:02:45.196Z,1046.75
2018-09-25T06:03:45.188Z,1046.68
2018-09-25T06:04:45.181Z,1046.61
2018-09-25T06:05:45.174Z,1046.56
2018-09-25T06:06:45.168Z,1046.57
2018-09-25T06:07:45.161Z,1046.41
2018-09-25T06:08:45.154Z,1046.37
2018-09-25T06:09:45.274Z,1046.27
2018-09-25T06:10:45.142Z,1046.22
2018-09-25T06:11:45.137Z,1046.14
2018-09-25T06:12:45.135Z,1046.09
2018-09-25T06:13:45.127Z,1046.08
2018-09-25T06:14:45.119Z,1045.97
2018-09-25T06:15:45.164Z,1045.93
2018-09-25T06:16:45.109Z,1045.88
2018-09-25T06:17:45.104Z,1045.79
2018-09-25T06:18:45.114Z,1045.69
2018-09-25T06:19:45.093Z,1045.66
2018-09-25T06:20:45.088Z,1045.57
2018-09-25T06:21:45.083Z,1045.51
2018-09-25T06:22:45.078Z,1045.47
2018-09-25T06:23:45.074Z,1045.41
2018-09-25T06:24:45.071Z,1045.25
2018-09-25T06:25:45.065Z,1045.24
2018-09-25T06:26:45.062Z,1045.2
2018-09-25T06:27:45.058Z,1045.2
2018-09-25T06:28:45.107Z,1045.17
2018-09-25T06:29:45.049Z,1045.16
2018-09-25T06:30:45.052Z,1045.08
2018-09-25T06:31:45.042Z,1045.07
2018-09-25T06:32:45.042Z,1045.05
2018-09-25T06:33:45.034Z,1044.96
2018-09-25T06:34:45.074Z,1044.86
2018-09-25T06:35:45.028Z,1044.77
2018-09-25T06:36:45.027Z,1044.73
2018-09-25T06:37:45.021Z,1044.62
2018-09-25T06:38:45.077Z,1044.64
2018-09-25T06:39:45.019Z,1044.56
2018-09-25T06:40:45.083Z,1044.58
2018-09-25T06:41:45.009Z,1044.58
2018-09-25T06:42:45.006Z,1044.64
2018-09-25T06:43:45.003Z,1044.58
2018-09-25T06:44:45.000Z,1044.58
2018-09-25T06:45:44.999Z,1044.52
2018-09-25T06:46:44.995Z,1044.48
2018-09-25T06:47:44.993Z,1044.48
2018-09-25T06:48:44.991Z,1044.48
2018-09-25T06:49:44.989Z,1044.4
2018-09-25T06:50:44.987Z,1044.38
2018-09-25T06:51:44.984Z,1044.37
2018-09-25T06:52:44.983Z,1044.31
2018-09-25T06:53:44.981Z,1044.26
2018-09-25T06:54:45.079Z,1044.25
2018-09-25T06:55:44.977Z,1044.16
2018-09-25T06:56:44.976Z,1044.05
2018-09-25T06:57:44.983Z,1044.02
2018-09-25T06:58:44.973Z,1043.92
2018-09-25T06:59:44.971Z,1043.86
2018-09-25T07:00:45.026Z,1043.8
2018-09-25T07:01:44.971Z,1043.77
2018-09-25T07:02:44.969Z,1043.69
2018-09-25T07:03:44.972Z,1043.59
2018-09-25T07:04:44.971Z,1043.52
2018-09-25T07:05:44.968Z,1043.5
2018-09-25T07:06:44.967Z,1043.42
2018-09-25T07:07:44.968Z,1043.41
2018-09-25T07:08:44.971Z,1043.37
2018-09-25T07:09:45.111Z,1043.21
2018-09-25T07:10:45.092Z,1043.16
2018-09-25T07:11:44.969Z,1043.07
2018-09-25T07:12:44.972Z,1042.95
2018-09-25T07:13:44.973Z,1042.82
2018-09-25T07:14:44.971Z,1042.83
2018-09-25T07:15:44.973Z,1042.78
2018-09-25T07:16:44.973Z,1042.87
2018-09-25T07:17:45.017Z,1042.79
2018-09-25T07:18:44.976Z,1042.78
2018-09-25T07:19:44.978Z,1042.77
2018-09-25T07:20:44.978Z,1042.74
2018-09-25T07:21:44.984Z,1042.71
2018-09-25T07:22:44.988Z,1042.75
2018-09-25T07:23:44.985Z,1042.75
2018-09-25T07:24:45.067Z,1042.98
2018-09-25T07:25:44.989Z,1043.3
2018-09-25T07:26:44.988Z,1043.58
2018-09-25T07:27:44.988Z,1043.83
2018-09-25T07:28:44.991Z,1043.96
2018-09-25T07:29:44.992Z,1044.2
2018-09-25T07:30:44.993Z,1044.21
2018-09-25T07:31:44.994Z,1044.39
2018-09-25T07:32:44.995Z,1044.48
2018-09-25T07:33:44.996Z,1044.52
2018-09-25T07:34:45.003Z,1044.48
2018-09-25T07:35:44.997Z,1044.49
2018-09-25T07:36:44.998Z,1044.63
2018-09-25T07:37:44.999Z,1044.75
2018-09-25T07:38:45.000Z,1044.82
2018-09-25T07:39:45.056Z,1044.94
2018-09-25T07:40:45.001Z,1044.96
2018-09-25T07:41:45.002Z,1044.95
2018-09-25T07:42:45.001Z,1044.92
2018-09-25T07:43:45.002Z,1044.92
2018-09-25T07:44:45.003Z,1044.88
2018-09-25T07:45:45.003Z,1044.87
2018-09-25T07:46:45.003Z,1044.86
2018-09-25T07:47:45.003Z,1044.99
2018-09-25T07:48:45.005Z,1045
2018-09-25T07:49:45.004Z,1045.04
2018-09-25T07:50:45.003Z,1044.95
2018-09-25T07:51:45.003Z,1044.89
2018-09-25T07:52:45.003Z,1045.23
2018-09-25T07:53:45.004Z,1045.76
2018-09-25T07:54:45.002Z,1046.28
2018-09-25T07:55:45.135Z,1046.74
2018-09-25T07:56:45.000Z,1047.13
2018-09-25T07:57:44.999Z,1047.48
2018-09-25T07:58:44.998Z,1047.85
2018-09-25T07:59:45.000Z,1048.09
2018-09-25T08:00:44.994Z,1048.34
2018-09-25T08:01:44.992Z,1048.52
2018-09-25T08:02:44.990Z,1048.8
2018-09-25T08:03:44.988Z,1048.95
2018-09-25T08:04:44.995Z,1049.16
2018-09-25T08:05:44.980Z,1049.39
2018-09-25T08:06:44.978Z,1049.5
2018-09-25T08:07:44.973Z,1049.61
2018-09-25T08:08:44.969Z,1049.75
2018-09-25T08:09:44.966Z,1049.85
2018-09-25T08:10:44.963Z,1049.95
2018-09-25T08:11:44.958Z,1050.03
2018-09-25T08:12:44.953Z,1050.05
2018-09-25T08:13:44.949Z,1050.11
2018-09-25T08:14:44.944Z,1050.2
2018-09-25T08:15:44.938Z,1050.26
2018-09-25T08:16:44.933Z,1050.3
2018-09-25T08:17:44.928Z,1050.4
2018-09-25T08:18:44.922Z,1050.42
2018-09-25T08:19:44.918Z,1050.48
2018-09-25T08:20:44.912Z,1050.54
2018-09-25T08:21:44.906Z,1050.57
2018-09-25T08:22:44.900Z,1050.62
2018-09-25T08:23:44.905Z,1050.67
2018-09-25T08:24:44.889Z,1050.69
2018-09-25T08:25:44.886Z,1050.71
2018-09-25T08:26:44.876Z,1050.77
2018-09-25T08:27:44.870Z,1050.77
2018-09-25T08:28:44.865Z,1050.77
2018-09-25T08:29:44.959Z,1050.81
2018-09-25T08:30:44.851Z,1050.83
2018-09-25T08:31:44.845Z,1050.83
2018-09-25T08:32:44.840Z,1050.83
2018-09-25T08:33:44.832Z,1050.82
2018-09-25T08:34:44.825Z,1050.86
2018-09-25T08:35:44.819Z,1050.9
2018-09-25T08:36:44.814Z,1050.94
2018-09-25T08:37:44.805Z,1050.91
2018-09-25T08:38:44.913Z,1050.98
2018-09-25T08:39:44.793Z,1050.91
2018-09-25T08:40:44.785Z,1050.96
2018-09-25T08:41:44.779Z,1050.95
2018-09-25T08:42:44.774Z,1051.02
2018-09-25T08:43:44.765Z,1050.95
2018-09-25T08:44:44.758Z,1050.98
2018-09-25T08:45:44.761Z,1051.01
2018-09-25T08:46:44.749Z,1050.96
2018-09-25T08:47:44.738Z,1050.97
2018-09-25T08:48:44.731Z,1050.97
2018-09-25T08:49:44.724Z,1050.97
2018-09-25T08:50:44.717Z,1050.99
2018-09-25T08:51:44.710Z,1050.95
2018-09-25T08:52:44.703Z,1050.93
2018-09-25T08:53:44.697Z,1050.99
2018-09-25T08:54:44.694Z,1050.96
2018-09-25T08:55:44.684Z,1050.95
2018-09-25T08:56:44.675Z,1051
2018-09-25T08:57:44.670Z,1051.05
2018-09-25T08:58:44.662Z,1051.05
2018-09-25T08:59:44.654Z,1051.06
2018-09-25T09:00:44.703Z,1051.11
2018-09-25T09:01:44.641Z,1051.1
2018-09-25T09:02:44.634Z,1051.09
2018-09-25T09:03:44.626Z,1051.13
2018-09-25T09:04:44.620Z,1051.18
2018-09-25T09:05:44.614Z,1051.23
2018-09-25T09:06:44.606Z,1051.2
2018-09-25T09:07:44.598Z,1051.24
2018-09-25T09:08:44.842Z,1051.22
2018-09-25T09:09:44.586Z,1051.25
2018-09-25T09:10:44.578Z,1051.3
2018-09-25T09:11:44.572Z,1051.34
2018-09-25T09:12:44.564Z,1051.34
2018-09-25T09:13:44.556Z,1051.34
2018-09-25T09:14:44.550Z,1051.29
2018-09-25T09:15:44.543Z,1051.28
2018-09-25T09:16:44.537Z,1051.3
2018-09-25T09:17:44.528Z,1051.3
2018-09-25T09:18:44.521Z,1051.28
2018-09-25T09:19:44.544Z,1051.25
2018-09-25T09:20:44.513Z,1051.22
2018-09-25T09:21:44.504Z,1051.31
2018-09-25T09:22:44.495Z,1051.26
2018-09-25T09:23:44.492Z,1051.3
2018-09-25T09:24:44.480Z,1051.25
2018-09-25T09:25:44.474Z,1051.3
2018-09-25T09:26:44.468Z,1051.28
2018-09-25T09:27:44.459Z,1051.3
2018-09-25T09:28:44.452Z,1051.24
2018-09-25T09:29:44.445Z,1051.25
2018-09-25T09:30:44.443Z,1051.29
2018-09-25T09:31:44.433Z,1051.28
2018-09-25T09:32:44.429Z,1051.24
2018-09-25T09:33:44.418Z,1051.24
2018-09-25T09:34:44.411Z,1051.16
2018-09-25T09:35:44.406Z,1051.02
2018-09-25T09:36:44.396Z,1051.04
2018-09-25T09:37:44.390Z,1051.09
2018-09-25T09:38:44.383Z,1051.04
2018-09-25T09:39:44.386Z,1051.04
2018-09-25T09:40:44.369Z,1051
2018-09-25T09:41:44.673Z,1050.97
2018-09-25T09:42:44.356Z,1050.88
2018-09-25T09:43:44.349Z,1050.83
2018-09-25T09:44:44.342Z,1050.7
2018-09-25T09:45:44.336Z,1050.71
2018-09-25T09:46:44.334Z,1050.77
2018-09-25T09:47:44.322Z,1050.74
2018-09-25T09:48:44.316Z,1050.69
2018-09-25T09:49:44.310Z,1050.52
2018-09-25T09:50:44.303Z,1050.39
2018-09-25T09:51:44.296Z,1050.18
2018-09-25T09:52:44.290Z,1050.13
2018-09-25T09:53:44.283Z,1050.12
2018-09-25T09:54:44.277Z,1050.01
2018-09-25T09:55:44.272Z,1049.96
2018-09-25T09:56:44.265Z,1049.95
2018-09-25T09:57:44.259Z,1049.97
2018-09-25T09:58:44.252Z,1049.93
2018-09-25T09:59:44.246Z,1049.96
2018-09-25T10:00:44.240Z,1049.95
2018-09-25T10:01:44.235Z,1050.02
2018-09-25T10:02:44.229Z,1050.01
2018-09-25T10:03:44.223Z,1049.97
2018-09-25T10:04:44.218Z,1049.99
2018-09-25T10:05:44.212Z,1050.03
2018-09-25T10:06:44.272Z,1050.04
2018-09-25T10:07:44.201Z,1050.1
2018-09-25T10:08:44.194Z,1050.06
2018-09-25T10:09:44.188Z,1050.11
2018-09-25T10:10:44.183Z,1050.07
2018-09-25T10:11:44.177Z,1049.92
2018-09-25T10:12:44.171Z,1049.78
2018-09-25T10:13:44.168Z,1049.75
2018-09-25T10:14:44.161Z,1049.74
2018-09-25T10:15:44.154Z,1049.63
2018-09-25T10:16:44.149Z,1049.69
2018-09-25T10:17:44.144Z,1049.84
2018-09-25T10:18:44.188Z,1049.97
2018-09-25T10:19:44.133Z,1049.96
2018-09-25T10:20:44.128Z,1050.11
2018-09-25T10:21:44.122Z,1050.14
2018-09-25T10:22:44.117Z,1050.17
2018-09-25T10:23:44.111Z,1050.16
2018-09-25T10:24:44.106Z,1050.14
2018-09-25T10:25:44.103Z,1050.07
2018-09-25T10:26:44.096Z,1050.11
2018-09-25T10:27:44.090Z,1049.98
2018-09-25T10:28:44.084Z,1049.83
2018-09-25T10:29:44.079Z,1049.64
2018-09-25T10:30:44.075Z,1049.55
2018-09-25T10:31:44.088Z,1049.53
2018-09-25T10:32:44.067Z,1049.51
2018-09-25T10:33:44.060Z,1049.51
2018-09-25T10:34:44.052Z,1049.69
2018-09-25T10:35:44.046Z,1049.73
2018-09-25T10:36:44.041Z,1049.79
2018-09-25T10:37:44.037Z,1049.87
2018-09-25T10:38:44.031Z,1049.84
2018-09-25T10:39:44.026Z,1049.8
2018-09-25T10:40:44.021Z,1049.74
2018-09-25T10:41:44.016Z,1049.63
2018-09-25T10:42:44.010Z,1049.47
2018-09-25T10:43:44.005Z,1049.33
2018-09-25T10:44:44.000Z,1049.31
2018-09-25T10:45:43.996Z,1049.31
2018-09-25T10:46:43.988Z,1049.42
2018-09-25T10:47:43.983Z,1049.5
2018-09-25T10:48:43.984Z,1049.58
2018-09-25T10:49:44.003Z,1049.73
2018-09-25T10:50:43.968Z,1049.79
2018-09-25T10:51:43.963Z,1049.86
2018-09-25T10:52:43.958Z,1050.05
2018-09-25T10:53:43.953Z,1050.01
2018-09-25T10:54:43.950Z,1050.06
2018-09-25T10:55:44.055Z,1050.12
2018-09-25T10:56:43.939Z,1050.2
2018-09-25T10:57:43.934Z,1050.22
2018-09-25T10:58:43.929Z,1050.28
2018-09-25T10:59:43.922Z,1050.34
2018-09-25T11:00:43.917Z,1050.32
2018-09-25T11:01:43.912Z,1050.42
2018-09-25T11:02:43.930Z,1050.48
2018-09-25T11:03:43.902Z,1050.45
2018-09-25T11:04:43.897Z,1050.62
2018-09-25T11:05:43.892Z,1050.7
2018-09-25T11:06:43.885Z,1050.76
2018-09-25T11:07:43.880Z,1050.74
2018-09-25T11:08:43.875Z,1050.74
2018-09-25T11:09:43.869Z,1050.77
2018-09-25T11:10:43.863Z,1050.7
2018-09-25T11:11:43.857Z,1050.69
2018-09-25T11:12:43.852Z,1050.69
2018-09-25T11:13:43.846Z,1050.62
2018-09-25T11:14:43.840Z,1050.49
2018-09-25T11:15:43.836Z,1050.41
2018-09-25T11:16:43.829Z,1050.32
2018-09-25T11:17:43.838Z,1050.19
2018-09-25T11:18:43.820Z,1050.06
2018-09-25T11:19:43.812Z,1049.92
2018-09-25T11:20:43.809Z,1049.89
2018-09-25T11:21:43.800Z,1049.93
2018-09-25T11:22:43.795Z,1049.87
2018-09-25T11:23:43.790Z,1049.88
2018-09-25T11:24:43.785Z,1049.91
2018-09-25T11:25:43.782Z,1049.97
2018-09-25T11:26:43.777Z,1049.96
2018-09-25T11:27:43.769Z,1049.9
2018-09-25T11:28:43.762Z,1049.88
2018-09-25T11:29:43.757Z,1049.89
2018-09-25T11:30:43.752Z,1049.81
2018-09-25T11:31:43.746Z,1049.83
2018-09-25T11:32:43.740Z,1049.73
2018-09-25T11:33:43.735Z,1049.8
2018-09-25T11:34:43.731Z,1049.79
2018-09-25T11:35:43.725Z,1049.84
2018-09-25T11:36:43.719Z,1049.98
2018-09-25T11:37:43.714Z,1050
2018-09-25T11:38:43.709Z,1050.16
2018-09-25T11:39:43.704Z,1050.25
2018-09-25T11:40:43.717Z,1050.36
2018-09-25T11:41:43.695Z,1050.46
2018-09-25T11:42:43.689Z,1050.51
2018-09-25T11:43:43.683Z,1050.56
2018-09-25T11:44:43.678Z,1050.62
2018-09-25T11:45:43.676Z,1050.62
2018-09-25T11:46:43.691Z,1050.56
2018-09-25T11:47:43.661Z,1050.52
2018-09-25T11:48:43.656Z,1050.48
2018-09-25T11:49:43.659Z,1050.46
2018-09-25T11:50:43.645Z,1050.42
2018-09-25T11:51:43.640Z,1050.38
2018-09-25T11:52:43.670Z,1050.35
2018-09-25T11:53:43.629Z,1050.36
2018-09-25T11:54:43.623Z,1050.45
2018-09-25T11:55:43.618Z,1050.55
2018-09-25T11:56:43.613Z,1050.62
2018-09-25T11:57:43.608Z,1050.64
2018-09-25T11:58:43.602Z,1050.74
2018-09-25T11:59:43.596Z,1050.77
2018-09-25T12:00:43.591Z,1050.76
2018-09-25T12:01:43.584Z,1050.77
2018-09-25T12:02:43.578Z,1050.74
2018-09-25T12:03:43.576Z,1050.77
2018-09-25T12:04:43.569Z,1050.75
2018-09-25T12:05:43.561Z,1050.71
2018-09-25T12:06:43.556Z,1050.67
2018-09-25T12:07:43.551Z,1050.51
2018-09-25T12:08:43.545Z,1050.4